sensor_id;sensor_type;location;lat;lon;timestamp;temperature;humidity
7720;DHT22;3902;49.474;8.616;2023-02-15T00:00:15;4.40;99.90
7720;DHT22;3902;49.474;8.616;2023-02-15T00:02:41;4.40;99.90
7720;DHT22;3902;49.474;8.616;2023-02-15T00:05:07;4.40;99.90
7720;DHT22;3902;49.474;8.616;2023-02-15T00:07:33;4.40;99.90
7720;DHT22;3902;49.474;8.616;2023-02-15T00:09:58;4.40;99.90
7720;DHT22;3902;49.474;8.616;2023-02-15T00:12:24;4.40;99.90
7720;DHT22;3902;49.474;8.616;2023-02-15T00:14:49;4.40;99.90
7720;DHT22;3902;49.474;8.616;2023-02-15T00:17:15;4.40;99.90
7720;DHT22;3902;49.474;8.616;2023-02-15T00:19:41;4.40;99.90
7720;DHT22;3902;49.474;8.616;2023-02-15T00:22:06;4.40;99.90
7720;DHT22;3902;49.474;8.616;2023-02-15T00:24:32;4.40;99.90
7720;DHT22;3902;49.474;8.616;2023-02-15T00:26:58;4.40;99.90
7720;DHT22;3902;49.474;8.616;2023-02-15T00:29:23;4.40;99.90
7720;DHT22;3902;49.474;8.616;2023-02-15T00:31:49;4.30;99.90
7720;DHT22;3902;49.474;8.616;2023-02-15T00:34:17;4.30;99.90
7720;DHT22;3902;49.474;8.616;2023-02-15T00:36:43;4.30;99.90
7720;DHT22;3902;49.474;8.616;2023-02-15T00:39:10;4.40;99.90
7720;DHT22;3902;49.474;8.616;2023-02-15T00:41:35;4.30;99.90
7720;DHT22;3902;49.474;8.616;2023-02-15T00:44:01;4.30;99.90
7720;DHT22;3902;49.474;8.616;2023-02-15T00:46:27;4.30;99.90
7720;DHT22;3902;49.474;8.616;2023-02-15T00:48:52;4.30;99.90
7720;DHT22;3902;49.474;8.616;2023-02-15T00:51:18;4.30;99.90
7720;DHT22;3902;49.474;8.616;2023-02-15T00:53:44;4.30;99.90
7720;DHT22;3902;49.474;8.616;2023-02-15T00:56:10;4.30;99.90
7720;DHT22;3902;49.474;8.616;2023-02-15T00:58:36;4.30;99.90
7720;DHT22;3902;49.474;8.616;2023-02-15T01:01:07;4.20;99.90
7720;DHT22;3902;49.474;8.616;2023-02-15T01:03:33;4.30;99.90
7720;DHT22;3902;49.474;8.616;2023-02-15T01:05:59;4.30;99.90
7720;DHT22;3902;49.474;8.616;2023-02-15T01:08:25;4.30;99.90
7720;DHT22;3902;49.474;8.616;2023-02-15T01:10:50;4.30;99.90
7720;DHT22;3902;49.474;8.616;2023-02-15T01:13:16;4.30;99.90
7720;DHT22;3902;49.474;8.616;2023-02-15T01:15:43;4.30;99.90
7720;DHT22;3902;49.474;8.616;2023-02-15T01:18:09;4.30;99.90
7720;DHT22;3902;49.474;8.616;2023-02-15T01:20:37;4.30;99.90
7720;DHT22;3902;49.474;8.616;2023-02-15T01:23:04;4.30;99.90
7720;DHT22;3902;49.474;8.616;2023-02-15T01:25:30;4.20;99.90
7720;DHT22;3902;49.474;8.616;2023-02-15T01:27:56;4.20;99.90
7720;DHT22;3902;49.474;8.616;2023-02-15T01:30:21;4.10;99.90
7720;DHT22;3902;49.474;8.616;2023-02-15T01:32:47;4.20;99.90
7720;DHT22;3902;49.474;8.616;2023-02-15T01:35:12;4.20;99.90
7720;DHT22;3902;49.474;8.616;2023-02-15T01:37:38;4.20;99.90
7720;DHT22;3902;49.474;8.616;2023-02-15T01:40:08;4.20;99.90
7720;DHT22;3902;49.474;8.616;2023-02-15T01:42:34;4.10;99.90
7720;DHT22;3902;49.474;8.616;2023-02-15T01:45:05;4.10;99.90
7720;DHT22;3902;49.474;8.616;2023-02-15T01:47:43;4.20;99.90
7720;DHT22;3902;49.474;8.616;2023-02-15T01:50:18;4.20;99.90
7720;DHT22;3902;49.474;8.616;2023-02-15T01:52:55;4.20;99.90
7720;DHT22;3902;49.474;8.616;2023-02-15T01:55:26;4.20;99.90
7720;DHT22;3902;49.474;8.616;2023-02-15T01:57:52;4.20;99.90
7720;DHT22;3902;49.474;8.616;2023-02-15T02:00:19;4.20;99.90
7720;DHT22;3902;49.474;8.616;2023-02-15T02:02:46;4.30;99.90
7720;DHT22;3902;49.474;8.616;2023-02-15T02:05:31;4.30;99.90
7720;DHT22;3902;49.474;8.616;2023-02-15T02:07:59;4.20;99.90
7720;DHT22;3902;49.474;8.616;2023-02-15T02:10:26;4.30;99.90
7720;DHT22;3902;49.474;8.616;2023-02-15T02:12:56;4.30;99.90
7720;DHT22;3902;49.474;8.616;2023-02-15T02:15:32;4.30;99.90
7720;DHT22;3902;49.474;8.616;2023-02-15T02:23:51;4.30;99.90
7720;DHT22;3902;49.474;8.616;2023-02-15T02:37:36;4.10;99.90
7720;DHT22;3902;49.474;8.616;2023-02-15T02:40:36;4.10;99.90
7720;DHT22;3902;49.474;8.616;2023-02-15T02:43:10;4.10;99.90
7720;DHT22;3902;49.474;8.616;2023-02-15T02:48:29;4.10;99.90
7720;DHT22;3902;49.474;8.616;2023-02-15T02:50:55;4.10;99.90
7720;DHT22;3902;49.474;8.616;2023-02-15T02:53:21;4.10;99.90
7720;DHT22;3902;49.474;8.616;2023-02-15T02:55:56;4.10;99.90
7720;DHT22;3902;49.474;8.616;2023-02-15T03:01:20;4.10;99.90
7720;DHT22;3902;49.474;8.616;2023-02-15T03:03:51;4.10;99.90
7720;DHT22;3902;49.474;8.616;2023-02-15T03:06:31;4.10;99.90
7720;DHT22;3902;49.474;8.616;2023-02-15T03:09:06;4.20;99.90
7720;DHT22;3902;49.474;8.616;2023-02-15T03:11:40;4.20;99.90
7720;DHT22;3902;49.474;8.616;2023-02-15T03:14:06;4.20;99.90
7720;DHT22;3902;49.474;8.616;2023-02-15T03:16:32;4.20;99.90
7720;DHT22;3902;49.474;8.616;2023-02-15T03:19:05;4.10;99.90
7720;DHT22;3902;49.474;8.616;2023-02-15T03:21:45;4.00;99.90
7720;DHT22;3902;49.474;8.616;2023-02-15T03:24:25;4.00;99.90
7720;DHT22;3902;49.474;8.616;2023-02-15T03:26:53;4.10;99.90
7720;DHT22;3902;49.474;8.616;2023-02-15T03:29:22;4.10;99.90
7720;DHT22;3902;49.474;8.616;2023-02-15T03:31:53;4.10;99.90
7720;DHT22;3902;49.474;8.616;2023-02-15T03:34:20;4.10;99.90
7720;DHT22;3902;49.474;8.616;2023-02-15T03:39:38;4.10;99.90
7720;DHT22;3902;49.474;8.616;2023-02-15T03:42:28;4.10;99.90
7720;DHT22;3902;49.474;8.616;2023-02-15T03:45:09;4.10;99.90
7720;DHT22;3902;49.474;8.616;2023-02-15T03:47:43;4.10;99.90
7720;DHT22;3902;49.474;8.616;2023-02-15T03:52:58;4.10;99.90
7720;DHT22;3902;49.474;8.616;2023-02-15T03:55:25;4.00;99.90
7720;DHT22;3902;49.474;8.616;2023-02-15T03:57:51;4.10;99.90
7720;DHT22;3902;49.474;8.616;2023-02-15T04:00:37;4.00;99.90
7720;DHT22;3902;49.474;8.616;2023-02-15T04:03:26;4.00;99.90
7720;DHT22;3902;49.474;8.616;2023-02-15T04:05:54;4.00;99.90
7720;DHT22;3902;49.474;8.616;2023-02-15T04:08:20;4.00;99.90
7720;DHT22;3902;49.474;8.616;2023-02-15T04:11:06;3.90;99.90
7720;DHT22;3902;49.474;8.616;2023-02-15T04:13:32;3.90;99.90
7720;DHT22;3902;49.474;8.616;2023-02-15T04:15:57;4.00;99.90
7720;DHT22;3902;49.474;8.616;2023-02-15T04:18:33;4.00;99.90
7720;DHT22;3902;49.474;8.616;2023-02-15T04:21:18;4.00;99.90
7720;DHT22;3902;49.474;8.616;2023-02-15T04:24:03;4.00;99.90
7720;DHT22;3902;49.474;8.616;2023-02-15T04:26:47;4.00;99.90
7720;DHT22;3902;49.474;8.616;2023-02-15T04:29:18;4.00;99.90
7720;DHT22;3902;49.474;8.616;2023-02-15T04:31:45;4.00;99.90
7720;DHT22;3902;49.474;8.616;2023-02-15T04:34:10;4.00;99.90
7720;DHT22;3902;49.474;8.616;2023-02-15T04:36:37;4.10;99.90
7720;DHT22;3902;49.474;8.616;2023-02-15T04:39:02;4.00;99.90
7720;DHT22;3902;49.474;8.616;2023-02-15T04:41:28;4.10;99.90
7720;DHT22;3902;49.474;8.616;2023-02-15T04:43:54;4.00;99.90
7720;DHT22;3902;49.474;8.616;2023-02-15T04:46:19;4.10;99.90
7720;DHT22;3902;49.474;8.616;2023-02-15T04:48:45;4.10;99.90
7720;DHT22;3902;49.474;8.616;2023-02-15T04:51:10;4.10;99.90
7720;DHT22;3902;49.474;8.616;2023-02-15T04:53:36;4.10;99.90
7720;DHT22;3902;49.474;8.616;2023-02-15T04:56:02;4.10;99.90
7720;DHT22;3902;49.474;8.616;2023-02-15T04:58:27;4.00;99.90
7720;DHT22;3902;49.474;8.616;2023-02-15T05:00:56;4.00;99.90
7720;DHT22;3902;49.474;8.616;2023-02-15T05:03:22;4.10;99.90
7720;DHT22;3902;49.474;8.616;2023-02-15T05:05:47;4.10;99.90
7720;DHT22;3902;49.474;8.616;2023-02-15T05:08:13;4.00;99.90
7720;DHT22;3902;49.474;8.616;2023-02-15T05:10:39;4.10;99.90
7720;DHT22;3902;49.474;8.616;2023-02-15T05:13:04;4.10;99.90
7720;DHT22;3902;49.474;8.616;2023-02-15T05:15:30;4.10;99.90
7720;DHT22;3902;49.474;8.616;2023-02-15T05:17:56;4.10;99.90
7720;DHT22;3902;49.474;8.616;2023-02-15T05:20:21;4.00;99.90
7720;DHT22;3902;49.474;8.616;2023-02-15T05:22:47;4.10;99.90
7720;DHT22;3902;49.474;8.616;2023-02-15T05:25:12;4.10;99.90
7720;DHT22;3902;49.474;8.616;2023-02-15T05:27:57;4.10;99.90
7720;DHT22;3902;49.474;8.616;2023-02-15T05:31:05;4.10;99.90
7720;DHT22;3902;49.474;8.616;2023-02-15T05:33:31;4.10;99.90
7720;DHT22;3902;49.474;8.616;2023-02-15T05:35:57;4.00;99.90
7720;DHT22;3902;49.474;8.616;2023-02-15T05:38:22;4.10;99.90
7720;DHT22;3902;49.474;8.616;2023-02-15T05:40:48;4.00;99.90
7720;DHT22;3902;49.474;8.616;2023-02-15T05:43:13;4.00;99.90
7720;DHT22;3902;49.474;8.616;2023-02-15T05:45:39;4.00;99.90
7720;DHT22;3902;49.474;8.616;2023-02-15T05:48:04;4.00;99.90
7720;DHT22;3902;49.474;8.616;2023-02-15T05:50:30;4.10;99.90
7720;DHT22;3902;49.474;8.616;2023-02-15T05:52:55;4.10;99.90
7720;DHT22;3902;49.474;8.616;2023-02-15T05:55:20;4.10;99.90
7720;DHT22;3902;49.474;8.616;2023-02-15T05:57:46;4.10;99.90
7720;DHT22;3902;49.474;8.616;2023-02-15T06:00:12;4.10;99.90
7720;DHT22;3902;49.474;8.616;2023-02-15T06:02:39;4.00;99.90
7720;DHT22;3902;49.474;8.616;2023-02-15T06:05:05;4.10;99.90
7720;DHT22;3902;49.474;8.616;2023-02-15T06:07:31;4.10;99.90
7720;DHT22;3902;49.474;8.616;2023-02-15T06:09:57;4.00;99.90
7720;DHT22;3902;49.474;8.616;2023-02-15T06:12:23;4.00;99.90
7720;DHT22;3902;49.474;8.616;2023-02-15T06:14:48;4.10;99.90
7720;DHT22;3902;49.474;8.616;2023-02-15T06:17:14;4.10;99.90
7720;DHT22;3902;49.474;8.616;2023-02-15T06:19:39;4.10;99.90
7720;DHT22;3902;49.474;8.616;2023-02-15T06:22:05;4.10;99.90
7720;DHT22;3902;49.474;8.616;2023-02-15T06:24:31;4.00;99.90
7720;DHT22;3902;49.474;8.616;2023-02-15T06:26:57;4.10;99.90
7720;DHT22;3902;49.474;8.616;2023-02-15T06:29:23;4.10;99.90
7720;DHT22;3902;49.474;8.616;2023-02-15T06:31:48;4.10;99.90
7720;DHT22;3902;49.474;8.616;2023-02-15T06:34:14;4.10;99.90
7720;DHT22;3902;49.474;8.616;2023-02-15T06:36:39;4.00;99.90
7720;DHT22;3902;49.474;8.616;2023-02-15T06:39:05;4.00;99.90
7720;DHT22;3902;49.474;8.616;2023-02-15T06:41:31;4.00;99.90
7720;DHT22;3902;49.474;8.616;2023-02-15T06:43:56;4.00;99.90
7720;DHT22;3902;49.474;8.616;2023-02-15T06:46:23;4.00;99.90
7720;DHT22;3902;49.474;8.616;2023-02-15T06:48:48;4.10;99.90
7720;DHT22;3902;49.474;8.616;2023-02-15T06:51:14;4.10;99.90
7720;DHT22;3902;49.474;8.616;2023-02-15T06:53:39;4.10;99.90
7720;DHT22;3902;49.474;8.616;2023-02-15T06:56:08;4.10;99.90
7720;DHT22;3902;49.474;8.616;2023-02-15T06:58:35;4.20;99.90
7720;DHT22;3902;49.474;8.616;2023-02-15T07:01:01;4.10;99.90
7720;DHT22;3902;49.474;8.616;2023-02-15T07:03:27;4.20;99.90
7720;DHT22;3902;49.474;8.616;2023-02-15T07:05:56;4.20;99.90
7720;DHT22;3902;49.474;8.616;2023-02-15T07:08:23;4.10;99.90
7720;DHT22;3902;49.474;8.616;2023-02-15T07:10:50;4.10;99.90
7720;DHT22;3902;49.474;8.616;2023-02-15T07:13:16;4.20;99.90
7720;DHT22;3902;49.474;8.616;2023-02-15T07:15:42;4.20;99.90
7720;DHT22;3902;49.474;8.616;2023-02-15T07:18:07;4.20;99.90
7720;DHT22;3902;49.474;8.616;2023-02-15T07:20:34;4.20;99.90
7720;DHT22;3902;49.474;8.616;2023-02-15T07:23:01;4.20;99.90
7720;DHT22;3902;49.474;8.616;2023-02-15T07:25:26;4.20;99.90
7720;DHT22;3902;49.474;8.616;2023-02-15T07:27:59;4.20;99.90
7720;DHT22;3902;49.474;8.616;2023-02-15T07:30:26;4.20;99.90
7720;DHT22;3902;49.474;8.616;2023-02-15T07:32:58;4.20;99.90
7720;DHT22;3902;49.474;8.616;2023-02-15T07:35:56;4.20;99.90
7720;DHT22;3902;49.474;8.616;2023-02-15T07:38:27;4.20;99.90
7720;DHT22;3902;49.474;8.616;2023-02-15T07:41:14;4.20;99.90
7720;DHT22;3902;49.474;8.616;2023-02-15T07:43:42;4.20;99.90
7720;DHT22;3902;49.474;8.616;2023-02-15T07:46:10;4.30;99.90
7720;DHT22;3902;49.474;8.616;2023-02-15T07:48:37;4.30;99.90
7720;DHT22;3902;49.474;8.616;2023-02-15T07:51:05;4.30;99.90
7720;DHT22;3902;49.474;8.616;2023-02-15T07:53:32;4.30;99.90
7720;DHT22;3902;49.474;8.616;2023-02-15T07:56:09;4.30;99.90
7720;DHT22;3902;49.474;8.616;2023-02-15T07:58:36;4.30;99.90
7720;DHT22;3902;49.474;8.616;2023-02-15T08:01:32;4.30;99.90
7720;DHT22;3902;49.474;8.616;2023-02-15T08:03:58;4.30;99.90
7720;DHT22;3902;49.474;8.616;2023-02-15T08:06:26;4.30;99.90
7720;DHT22;3902;49.474;8.616;2023-02-15T08:08:52;4.30;99.90
7720;DHT22;3902;49.474;8.616;2023-02-15T08:11:23;4.40;99.90
7720;DHT22;3902;49.474;8.616;2023-02-15T08:14:20;4.40;99.90
7720;DHT22;3902;49.474;8.616;2023-02-15T08:16:54;4.40;99.90
7720;DHT22;3902;49.474;8.616;2023-02-15T08:19:25;4.30;99.90
7720;DHT22;3902;49.474;8.616;2023-02-15T08:21:56;4.30;99.90
7720;DHT22;3902;49.474;8.616;2023-02-15T08:24:32;4.30;99.90
7720;DHT22;3902;49.474;8.616;2023-02-15T08:26:59;4.20;99.90
7720;DHT22;3902;49.474;8.616;2023-02-15T08:29:26;4.20;99.90
7720;DHT22;3902;49.474;8.616;2023-02-15T08:31:54;4.10;99.90
7720;DHT22;3902;49.474;8.616;2023-02-15T08:34:20;4.10;99.90
7720;DHT22;3902;49.474;8.616;2023-02-15T08:36:46;4.10;99.90
7720;DHT22;3902;49.474;8.616;2023-02-15T08:39:14;4.10;99.90
7720;DHT22;3902;49.474;8.616;2023-02-15T08:41:44;4.20;99.90
7720;DHT22;3902;49.474;8.616;2023-02-15T08:44:10;4.10;99.90
7720;DHT22;3902;49.474;8.616;2023-02-15T08:46:39;4.10;99.90
7720;DHT22;3902;49.474;8.616;2023-02-15T08:49:05;4.10;99.90
7720;DHT22;3902;49.474;8.616;2023-02-15T08:51:33;4.10;99.90
7720;DHT22;3902;49.474;8.616;2023-02-15T08:54:00;4.10;99.90
7720;DHT22;3902;49.474;8.616;2023-02-15T08:56:28;4.10;99.90
7720;DHT22;3902;49.474;8.616;2023-02-15T08:58:54;4.10;99.90
7720;DHT22;3902;49.474;8.616;2023-02-15T09:01:22;4.10;99.90
7720;DHT22;3902;49.474;8.616;2023-02-15T09:03:50;4.00;99.90
7720;DHT22;3902;49.474;8.616;2023-02-15T09:06:19;3.90;99.90
7720;DHT22;3902;49.474;8.616;2023-02-15T09:08:45;3.90;99.90
7720;DHT22;3902;49.474;8.616;2023-02-15T09:11:19;3.90;99.90
7720;DHT22;3902;49.474;8.616;2023-02-15T09:13:50;3.80;99.90
7720;DHT22;3902;49.474;8.616;2023-02-15T09:16:16;3.80;99.90
7720;DHT22;3902;49.474;8.616;2023-02-15T09:18:42;3.80;99.90
7720;DHT22;3902;49.474;8.616;2023-02-15T09:21:13;3.80;99.90
7720;DHT22;3902;49.474;8.616;2023-02-15T09:23:40;3.80;99.90
7720;DHT22;3902;49.474;8.616;2023-02-15T09:26:08;3.70;99.90
7720;DHT22;3902;49.474;8.616;2023-02-15T09:28:34;3.70;99.90
7720;DHT22;3902;49.474;8.616;2023-02-15T09:31:15;3.70;99.90
7720;DHT22;3902;49.474;8.616;2023-02-15T09:33:42;3.70;99.90
7720;DHT22;3902;49.474;8.616;2023-02-15T09:36:23;3.80;99.90
7720;DHT22;3902;49.474;8.616;2023-02-15T09:39:00;3.80;99.90
7720;DHT22;3902;49.474;8.616;2023-02-15T09:44:38;3.70;99.90
7720;DHT22;3902;49.474;8.616;2023-02-15T09:58:33;3.80;99.90
7720;DHT22;3902;49.474;8.616;2023-02-15T10:01:32;3.60;99.90
7720;DHT22;3902;49.474;8.616;2023-02-15T10:07:10;3.60;99.90
7720;DHT22;3902;49.474;8.616;2023-02-15T10:12:57;3.60;99.90
7720;DHT22;3902;49.474;8.616;2023-02-15T10:15:44;3.60;99.90
7720;DHT22;3902;49.474;8.616;2023-02-15T10:21:05;3.50;99.90
7720;DHT22;3902;49.474;8.616;2023-02-15T10:23:57;3.60;99.90
7720;DHT22;3902;49.474;8.616;2023-02-15T10:26:35;3.60;99.90
7720;DHT22;3902;49.474;8.616;2023-02-15T10:29:09;3.40;99.90
7720;DHT22;3902;49.474;8.616;2023-02-15T10:32:16;3.30;99.90
7720;DHT22;3902;49.474;8.616;2023-02-15T10:34:39;3.30;99.90
7720;DHT22;3902;49.474;8.616;2023-02-15T10:45:33;3.10;99.90
7720;DHT22;3902;49.474;8.616;2023-02-15T10:51:48;3.20;99.90
7720;DHT22;3902;49.474;8.616;2023-02-15T10:54:42;3.10;99.90
7720;DHT22;3902;49.474;8.616;2023-02-15T11:08:24;3.50;99.90
7720;DHT22;3902;49.474;8.616;2023-02-15T11:10:56;3.40;99.90
7720;DHT22;3902;49.474;8.616;2023-02-15T11:13:26;3.50;99.90
7720;DHT22;3902;49.474;8.616;2023-02-15T11:15:57;3.50;99.90
7720;DHT22;3902;49.474;8.616;2023-02-15T11:18:32;3.40;99.90
7720;DHT22;3902;49.474;8.616;2023-02-15T11:21:09;3.20;99.90
7720;DHT22;3902;49.474;8.616;2023-02-15T11:23:42;3.30;99.90
7720;DHT22;3902;49.474;8.616;2023-02-15T11:26:15;3.30;99.90
7720;DHT22;3902;49.474;8.616;2023-02-15T11:29:07;3.50;99.90
7720;DHT22;3902;49.474;8.616;2023-02-15T11:31:54;3.70;99.90
7720;DHT22;3902;49.474;8.616;2023-02-15T11:34:34;3.80;99.90
7720;DHT22;3902;49.474;8.616;2023-02-15T11:37:06;3.90;99.90
7720;DHT22;3902;49.474;8.616;2023-02-15T11:39:34;4.00;99.90
7720;DHT22;3902;49.474;8.616;2023-02-15T11:42:04;4.00;99.90
7720;DHT22;3902;49.474;8.616;2023-02-15T11:44:35;4.10;99.90
7720;DHT22;3902;49.474;8.616;2023-02-15T11:47:02;4.20;99.90
7720;DHT22;3902;49.474;8.616;2023-02-15T11:49:33;4.20;99.90
7720;DHT22;3902;49.474;8.616;2023-02-15T11:52:02;4.10;99.90
7720;DHT22;3902;49.474;8.616;2023-02-15T11:54:31;4.10;99.90
7720;DHT22;3902;49.474;8.616;2023-02-15T11:57:04;4.20;99.90
7720;DHT22;3902;49.474;8.616;2023-02-15T11:59:36;4.10;99.90
7720;DHT22;3902;49.474;8.616;2023-02-15T12:02:16;4.10;99.90
7720;DHT22;3902;49.474;8.616;2023-02-15T12:04:45;4.20;99.90
7720;DHT22;3902;49.474;8.616;2023-02-15T12:07:23;4.10;99.90
7720;DHT22;3902;49.474;8.616;2023-02-15T12:10:10;4.20;99.90
7720;DHT22;3902;49.474;8.616;2023-02-15T12:12:39;4.30;99.90
7720;DHT22;3902;49.474;8.616;2023-02-15T12:15:10;4.20;99.90
7720;DHT22;3902;49.474;8.616;2023-02-15T12:17:39;4.30;99.90
7720;DHT22;3902;49.474;8.616;2023-02-15T12:22:49;4.40;99.90
7720;DHT22;3902;49.474;8.616;2023-02-15T12:25:29;4.40;99.90
7720;DHT22;3902;49.474;8.616;2023-02-15T12:27:58;4.40;99.90
7720;DHT22;3902;49.474;8.616;2023-02-15T12:30:32;4.50;99.90
7720;DHT22;3902;49.474;8.616;2023-02-15T12:35:39;4.60;99.90
7720;DHT22;3902;49.474;8.616;2023-02-15T12:40:37;4.60;99.90
7720;DHT22;3902;49.474;8.616;2023-02-15T12:43:03;4.60;99.90
7720;DHT22;3902;49.474;8.616;2023-02-15T12:45:36;4.60;99.90
7720;DHT22;3902;49.474;8.616;2023-02-15T12:48:19;4.50;99.90
7720;DHT22;3902;49.474;8.616;2023-02-15T12:50:49;4.60;99.90
7720;DHT22;3902;49.474;8.616;2023-02-15T12:53:18;4.70;99.90
7720;DHT22;3902;49.474;8.616;2023-02-15T12:55:55;4.80;99.90
7720;DHT22;3902;49.474;8.616;2023-02-15T13:00:48;4.80;99.90
7720;DHT22;3902;49.474;8.616;2023-02-15T13:03:26;4.70;99.90
7720;DHT22;3902;49.474;8.616;2023-02-15T13:05:53;4.80;99.90
7720;DHT22;3902;49.474;8.616;2023-02-15T13:08:31;4.80;99.90
7720;DHT22;3902;49.474;8.616;2023-02-15T13:11:10;4.70;99.90
7720;DHT22;3902;49.474;8.616;2023-02-15T13:13:56;4.60;99.90
7720;DHT22;3902;49.474;8.616;2023-02-15T13:16:36;4.80;99.90
7720;DHT22;3902;49.474;8.616;2023-02-15T13:19:22;4.90;99.90
7720;DHT22;3902;49.474;8.616;2023-02-15T13:21:53;5.00;99.90
7720;DHT22;3902;49.474;8.616;2023-02-15T13:24:32;5.10;99.90
7720;DHT22;3902;49.474;8.616;2023-02-15T13:26:59;5.10;99.90
7720;DHT22;3902;49.474;8.616;2023-02-15T13:29:29;5.20;99.90
7720;DHT22;3902;49.474;8.616;2023-02-15T13:32:07;5.20;99.90
7720;DHT22;3902;49.474;8.616;2023-02-15T13:34:37;5.20;99.90
7720;DHT22;3902;49.474;8.616;2023-02-15T13:37:18;5.30;99.90
7720;DHT22;3902;49.474;8.616;2023-02-15T13:39:59;5.30;99.90
7720;DHT22;3902;49.474;8.616;2023-02-15T13:45:24;5.70;99.90
7720;DHT22;3902;49.474;8.616;2023-02-15T13:48:15;5.90;99.90
7720;DHT22;3902;49.474;8.616;2023-02-15T13:55:59;6.50;99.90
7720;DHT22;3902;49.474;8.616;2023-02-15T14:04:22;8.10;99.90
7720;DHT22;3902;49.474;8.616;2023-02-15T14:18:32;11.40;99.90
7720;DHT22;3902;49.474;8.616;2023-02-15T14:24:08;12.30;99.90
7720;DHT22;3902;49.474;8.616;2023-02-15T14:29:51;12.40;99.90
7720;DHT22;3902;49.474;8.616;2023-02-15T14:35:00;12.80;99.90
7720;DHT22;3902;49.474;8.616;2023-02-15T14:46:16;12.90;99.90
7720;DHT22;3902;49.474;8.616;2023-02-15T14:48:48;12.90;99.90
7720;DHT22;3902;49.474;8.616;2023-02-15T14:54:07;12.80;99.90
7720;DHT22;3902;49.474;8.616;2023-02-15T14:56:32;12.80;99.90
7720;DHT22;3902;49.474;8.616;2023-02-15T14:59:11;12.60;99.90
7720;DHT22;3902;49.474;8.616;2023-02-15T15:01:38;12.50;99.90
7720;DHT22;3902;49.474;8.616;2023-02-15T15:04:07;12.60;99.90
7720;DHT22;3902;49.474;8.616;2023-02-15T15:06:36;12.70;99.90
7720;DHT22;3902;49.474;8.616;2023-02-15T15:09:25;12.50;99.90
7720;DHT22;3902;49.474;8.616;2023-02-15T15:11:53;12.80;99.90
7720;DHT22;3902;49.474;8.616;2023-02-15T15:16:57;12.80;99.90
7720;DHT22;3902;49.474;8.616;2023-02-15T15:22:22;12.80;99.90
7720;DHT22;3902;49.474;8.616;2023-02-15T15:32:50;12.20;99.90
7720;DHT22;3902;49.474;8.616;2023-02-15T15:43:58;10.90;99.90
7720;DHT22;3902;49.474;8.616;2023-02-15T15:49:32;10.30;99.90
7720;DHT22;3902;49.474;8.616;2023-02-15T15:52:17;10.10;99.90
7720;DHT22;3902;49.474;8.616;2023-02-15T15:54:44;9.70;99.90
7720;DHT22;3902;49.474;8.616;2023-02-15T15:59:46;9.30;99.90
7720;DHT22;3902;49.474;8.616;2023-02-15T16:02:14;9.00;99.90
7720;DHT22;3902;49.474;8.616;2023-02-15T16:04:44;8.90;99.90
7720;DHT22;3902;49.474;8.616;2023-02-15T16:12:37;8.10;99.90
7720;DHT22;3902;49.474;8.616;2023-02-15T16:15:14;8.00;99.90
7720;DHT22;3902;49.474;8.616;2023-02-15T16:17:42;7.90;99.90
7720;DHT22;3902;49.474;8.616;2023-02-15T16:20:18;7.80;99.90
7720;DHT22;3902;49.474;8.616;2023-02-15T16:22:52;7.70;99.90
7720;DHT22;3902;49.474;8.616;2023-02-15T16:25:29;7.60;99.90
7720;DHT22;3902;49.474;8.616;2023-02-15T16:27:56;7.50;99.90
7720;DHT22;3902;49.474;8.616;2023-02-15T16:30:33;7.40;99.90
7720;DHT22;3902;49.474;8.616;2023-02-15T16:35:31;7.20;99.90
7720;DHT22;3902;49.474;8.616;2023-02-15T16:37:57;7.10;99.90
7720;DHT22;3902;49.474;8.616;2023-02-15T16:42:48;7.00;99.90
7720;DHT22;3902;49.474;8.616;2023-02-15T16:45:17;6.90;99.90
7720;DHT22;3902;49.474;8.616;2023-02-15T16:47:46;6.80;99.90
7720;DHT22;3902;49.474;8.616;2023-02-15T16:50:39;6.70;99.90
7720;DHT22;3902;49.474;8.616;2023-02-15T16:53:06;6.70;99.90
7720;DHT22;3902;49.474;8.616;2023-02-15T16:55:40;6.60;99.90
7720;DHT22;3902;49.474;8.616;2023-02-15T16:58:11;6.50;99.90
7720;DHT22;3902;49.474;8.616;2023-02-15T17:00:38;6.40;99.90
7720;DHT22;3902;49.474;8.616;2023-02-15T17:03:20;6.30;99.90
7720;DHT22;3902;49.474;8.616;2023-02-15T17:06:00;6.30;99.90
7720;DHT22;3902;49.474;8.616;2023-02-15T17:08:34;6.10;99.90
7720;DHT22;3902;49.474;8.616;2023-02-15T17:11:18;6.10;99.90
7720;DHT22;3902;49.474;8.616;2023-02-15T17:14:12;6.00;99.90
7720;DHT22;3902;49.474;8.616;2023-02-15T17:16:49;5.90;99.90
7720;DHT22;3902;49.474;8.616;2023-02-15T17:21:51;5.80;99.90
7720;DHT22;3902;49.474;8.616;2023-02-15T17:24:37;5.70;99.90
7720;DHT22;3902;49.474;8.616;2023-02-15T17:27:19;5.70;99.90
7720;DHT22;3902;49.474;8.616;2023-02-15T17:29:52;5.60;99.90
7720;DHT22;3902;49.474;8.616;2023-02-15T17:32:25;5.50;99.90
7720;DHT22;3902;49.474;8.616;2023-02-15T17:35:18;5.40;99.90
7720;DHT22;3902;49.474;8.616;2023-02-15T17:37:46;5.40;99.90
7720;DHT22;3902;49.474;8.616;2023-02-15T17:40:27;5.30;99.90
7720;DHT22;3902;49.474;8.616;2023-02-15T17:42:53;5.30;99.90
7720;DHT22;3902;49.474;8.616;2023-02-15T17:45:19;5.20;99.90
7720;DHT22;3902;49.474;8.616;2023-02-15T17:47:47;5.20;99.90
7720;DHT22;3902;49.474;8.616;2023-02-15T17:50:26;5.10;99.90
7720;DHT22;3902;49.474;8.616;2023-02-15T17:52:53;5.10;99.90
7720;DHT22;3902;49.474;8.616;2023-02-15T17:55:22;5.00;99.90
7720;DHT22;3902;49.474;8.616;2023-02-15T17:58:02;5.00;99.90
7720;DHT22;3902;49.474;8.616;2023-02-15T18:00:29;5.00;99.90
7720;DHT22;3902;49.474;8.616;2023-02-15T18:03:14;4.90;99.90
7720;DHT22;3902;49.474;8.616;2023-02-15T18:05:58;4.90;99.90
7720;DHT22;3902;49.474;8.616;2023-02-15T18:08:42;4.90;99.90
7720;DHT22;3902;49.474;8.616;2023-02-15T18:11:26;4.90;99.90
7720;DHT22;3902;49.474;8.616;2023-02-15T18:14:07;4.80;99.90
7720;DHT22;3902;49.474;8.616;2023-02-15T18:16:38;4.80;99.90
7720;DHT22;3902;49.474;8.616;2023-02-15T18:19:26;4.80;99.90
7720;DHT22;3902;49.474;8.616;2023-02-15T18:21:52;4.70;99.90
7720;DHT22;3902;49.474;8.616;2023-02-15T18:24:22;4.70;99.90
7720;DHT22;3902;49.474;8.616;2023-02-15T18:26:52;4.60;99.90
7720;DHT22;3902;49.474;8.616;2023-02-15T18:29:19;4.60;99.90
7720;DHT22;3902;49.474;8.616;2023-02-15T18:31:47;4.60;99.90
7720;DHT22;3902;49.474;8.616;2023-02-15T18:34:27;4.50;99.90
7720;DHT22;3902;49.474;8.616;2023-02-15T18:36:53;4.50;99.90
7720;DHT22;3902;49.474;8.616;2023-02-15T18:42:32;4.40;99.90
7720;DHT22;3902;49.474;8.616;2023-02-15T18:45:22;4.30;99.90
7720;DHT22;3902;49.474;8.616;2023-02-15T18:47:49;4.30;99.90
7720;DHT22;3902;49.474;8.616;2023-02-15T18:50:17;4.30;99.90
7720;DHT22;3902;49.474;8.616;2023-02-15T18:52:44;4.30;99.90
7720;DHT22;3902;49.474;8.616;2023-02-15T18:55:39;4.20;99.90
7720;DHT22;3902;49.474;8.616;2023-02-15T18:58:05;4.20;99.90
7720;DHT22;3902;49.474;8.616;2023-02-15T19:00:33;4.20;99.90
7720;DHT22;3902;49.474;8.616;2023-02-15T19:03:00;4.20;99.90
7720;DHT22;3902;49.474;8.616;2023-02-15T19:05:29;4.20;99.90
7720;DHT22;3902;49.474;8.616;2023-02-15T19:07:58;4.10;99.90
7720;DHT22;3902;49.474;8.616;2023-02-15T19:10:26;4.10;99.90
7720;DHT22;3902;49.474;8.616;2023-02-15T19:12:53;4.00;99.90
7720;DHT22;3902;49.474;8.616;2023-02-15T19:15:22;4.00;99.90
7720;DHT22;3902;49.474;8.616;2023-02-15T19:17:48;4.00;99.90
7720;DHT22;3902;49.474;8.616;2023-02-15T19:20:16;4.00;99.90
7720;DHT22;3902;49.474;8.616;2023-02-15T19:22:43;3.90;99.90
7720;DHT22;3902;49.474;8.616;2023-02-15T19:25:16;3.90;99.90
7720;DHT22;3902;49.474;8.616;2023-02-15T19:27:43;3.90;99.90
7720;DHT22;3902;49.474;8.616;2023-02-15T19:30:37;3.90;99.90
7720;DHT22;3902;49.474;8.616;2023-02-15T19:33:02;3.90;99.90
7720;DHT22;3902;49.474;8.616;2023-02-15T19:35:32;3.80;99.90
7720;DHT22;3902;49.474;8.616;2023-02-15T19:38:01;3.90;99.90